createdAt,value
2019-04-14T00:01:50.112Z,14.73
2019-04-14T00:04:33.358Z,14.83
2019-04-14T00:07:03.597Z,14.40
2019-04-14T00:09:33.746Z,14.80
2019-04-14T00:12:06.281Z,14.47
2019-04-14T00:14:34.015Z,14.53
2019-04-14T00:17:04.170Z,13.73
2019-04-14T00:19:33.224Z,13.83
2019-04-14T00:22:03.238Z,14.80
2019-04-14T00:24:33.481Z,15.57
2019-04-14T00:27:02.799Z,14.57
2019-04-14T00:29:32.747Z,15.80
2019-04-14T00:32:02.983Z,14.20
2019-04-14T00:34:50.868Z,14.63
2019-04-14T00:37:40.643Z,14.07
2019-04-14T00:40:12.883Z,15.43
2019-04-14T00:43:04.912Z,14.47
2019-04-14T00:45:46.432Z,14.53
2019-04-14T00:48:15.875Z,14.53
2019-04-14T00:50:43.837Z,14.87
2019-04-14T00:53:13.941Z,15.10
2019-04-14T00:55:44.348Z,14.73
2019-04-14T00:58:14.797Z,14.20
2019-04-14T01:00:45.050Z,14.83
2019-04-14T01:03:14.213Z,14.77
2019-04-14T01:05:43.702Z,14.43
2019-04-14T01:08:14.036Z,14.00
2019-04-14T01:10:43.328Z,14.17
2019-04-14T01:13:13.188Z,14.37
2019-04-14T01:15:52.043Z,14.50
2019-04-14T01:18:14.686Z,15.47
2019-04-14T01:20:44.890Z,15.07
2019-04-14T01:23:15.036Z,15.40
2019-04-14T01:25:45.239Z,15.97
2019-04-14T01:28:15.739Z,14.50
2019-04-14T01:30:45.862Z,15.07
2019-04-14T01:33:16.245Z,15.03
2019-04-14T01:35:46.624Z,14.27
2019-04-14T01:38:16.986Z,15.57
2019-04-14T01:40:46.682Z,14.90
2019-04-14T01:43:16.739Z,14.83
2019-04-14T01:45:58.172Z,14.80
2019-04-14T01:48:17.080Z,14.53
2019-04-14T01:51:06.969Z,14.57
2019-04-14T01:53:55.232Z,15.47
2019-04-14T01:56:42.800Z,14.73
2019-04-14T01:59:13.004Z,14.67
2019-04-14T02:01:44.086Z,15.73
2019-04-14T02:04:13.870Z,15.30
2019-04-14T02:06:44.110Z,14.83
2019-04-14T02:09:14.064Z,14.43
2019-04-14T02:11:44.420Z,15.13
2019-04-14T02:14:14.673Z,14.37
2019-04-14T02:16:48.673Z,15.77
2019-04-14T02:19:15.383Z,15.20
2019-04-14T02:21:45.514Z,13.87
2019-04-14T02:24:15.697Z,15.57
2019-04-14T02:26:45.934Z,14.77
2019-04-14T02:29:15.002Z,16.37
2019-04-14T02:32:15.831Z,16.43
2019-04-14T02:34:49.504Z,15.90
2019-04-14T02:37:21.541Z,16.00
2019-04-14T02:39:47.777Z,16.33
2019-04-14T02:42:31.155Z,16.43
2019-04-14T02:44:45.654Z,15.73
2019-04-14T02:47:36.368Z,16.67
2019-04-14T02:54:51.661Z,16.23
2019-04-14T02:57:30.468Z,16.03
2019-04-14T02:59:49.640Z,15.87
2019-04-14T03:04:50.558Z,15.70
2019-04-14T03:09:48.557Z,15.40
2019-04-14T03:12:24.882Z,15.60
2019-04-14T03:14:53.789Z,16.70
2019-04-14T03:17:47.301Z,15.47
2019-04-14T03:20:47.643Z,16.57
2019-04-14T03:25:33.647Z,16.63
2019-04-14T03:28:26.313Z,16.03
2019-04-14T03:36:44.114Z,16.87
2019-04-14T03:38:54.982Z,16.40
2019-04-14T03:43:43.084Z,16.30
2019-04-14T03:46:34.467Z,16.27
2019-04-14T03:53:47.281Z,16.50
2019-04-14T03:56:32.065Z,16.90
2019-04-14T03:59:01.992Z,15.80
2019-04-14T04:01:32.250Z,15.90
2019-04-14T04:04:01.483Z,17.53
2019-04-14T04:06:31.367Z,17.00
2019-04-14T04:09:01.798Z,16.23
2019-04-14T04:11:32.202Z,16.13
2019-04-14T04:14:01.304Z,16.37
2019-04-14T04:16:48.408Z,16.37
2019-04-14T04:19:23.412Z,16.90
2019-04-14T04:22:11.464Z,16.53
2019-04-14T04:24:54.680Z,16.27
2019-04-14T04:27:41.908Z,17.10
2019-04-14T04:30:19.407Z,18.20
2019-04-14T04:33:06.713Z,15.70
2019-04-14T04:35:39.407Z,16.33
2019-04-14T04:38:12.184Z,17.90
2019-04-14T04:40:41.884Z,16.97
2019-04-14T04:43:12.471Z,15.67
2019-04-14T04:45:41.674Z,17.10
2019-04-14T04:48:11.256Z,16.60
2019-04-14T04:50:41.043Z,17.37
2019-04-14T04:53:10.064Z,17.07
2019-04-14T04:55:39.519Z,16.20
2019-04-14T04:58:10.024Z,16.07
2019-04-14T05:00:39.467Z,15.57
2019-04-14T05:03:09.971Z,16.77
2019-04-14T05:06:30.934Z,15.63
2019-04-14T05:09:07.778Z,16.57
2019-04-14T05:11:42.673Z,16.70
2019-04-14T05:14:15.989Z,16.70
2019-04-14T05:16:46.143Z,16.53
2019-04-14T05:19:23.767Z,16.83
2019-04-14T05:21:45.920Z,16.60
2019-04-14T05:24:15.747Z,15.73
2019-04-14T05:26:45.974Z,15.07
2019-04-14T05:29:15.047Z,15.27
2019-04-14T05:31:44.707Z,15.43
2019-04-14T05:34:13.677Z,15.63
2019-04-14T05:36:43.272Z,15.50
2019-04-14T05:39:13.503Z,14.33
2019-04-14T05:41:55.846Z,15.33
2019-04-14T05:44:14.233Z,15.10
2019-04-14T05:46:44.597Z,15.13
2019-04-14T05:49:24.514Z,15.43
2019-04-14T05:51:44.495Z,14.63
2019-04-14T05:54:14.209Z,14.97
2019-04-14T05:56:43.255Z,14.10
2019-04-14T05:59:13.417Z,15.20
2019-04-14T06:01:42.602Z,14.93
2019-04-14T06:04:11.651Z,14.60
2019-04-14T06:06:40.607Z,15.20
2019-04-14T06:09:09.634Z,15.10
2019-04-14T06:11:38.543Z,15.37
2019-04-14T06:14:07.655Z,14.63
2019-04-14T06:16:37.217Z,14.73
2019-04-14T06:19:06.115Z,15.23
2019-04-14T06:21:35.011Z,14.20
2019-04-14T06:24:04.121Z,15.07
2019-04-14T06:26:32.987Z,14.73
2019-04-14T06:29:02.378Z,14.50
2019-04-14T06:31:53.575Z,13.90
2019-04-14T06:34:30.305Z,14.47
2019-04-14T06:37:09.813Z,14.93
2019-04-14T06:39:42.238Z,13.33
2019-04-14T06:42:11.125Z,13.60
2019-04-14T06:44:40.106Z,14.70
2019-04-14T06:47:09.161Z,14.07
2019-04-14T06:49:48.432Z,14.37
2019-04-14T06:52:08.914Z,13.60
2019-04-14T06:54:38.270Z,12.93
2019-04-14T06:57:07.157Z,12.90
2019-04-14T06:59:36.138Z,13.30
2019-04-14T07:02:05.166Z,13.40
2019-04-14T07:04:34.054Z,12.67
2019-04-14T07:07:03.131Z,12.87
2019-04-14T07:09:32.093Z,11.97
2019-04-14T07:12:01.196Z,13.00
2019-04-14T07:14:31.976Z,12.40
2019-04-14T07:17:01.250Z,12.20
2019-04-14T07:19:30.231Z,11.80
2019-04-14T07:21:59.600Z,12.03
2019-04-14T07:24:28.640Z,12.20
2019-04-14T07:26:57.618Z,12.03
2019-04-14T07:29:28.655Z,12.27
2019-04-14T07:32:15.863Z,10.83
2019-04-14T07:34:55.015Z,11.43
2019-04-14T07:37:43.575Z,11.37
2019-04-14T07:40:30.591Z,11.00
2019-04-14T07:43:21.674Z,11.60
2019-04-14T07:46:09.771Z,12.33
2019-04-14T07:48:51.819Z,11.33
2019-04-14T07:51:28.039Z,11.47
2019-04-14T07:54:00.491Z,11.27
2019-04-14T07:56:51.115Z,11.43
2019-04-14T07:59:39.247Z,11.97
2019-04-14T08:02:20.839Z,11.87
2019-04-14T08:04:59.551Z,11.53
2019-04-14T08:07:28.447Z,10.90
2019-04-14T08:09:56.859Z,11.33
2019-04-14T08:12:25.287Z,11.50
2019-04-14T08:14:53.799Z,11.57
2019-04-14T08:17:22.291Z,11.93
2019-04-14T08:19:50.780Z,11.43
2019-04-14T08:22:19.368Z,12.10
2019-04-14T08:24:47.868Z,10.70
2019-04-14T08:27:16.277Z,11.20
2019-04-14T08:29:44.748Z,11.07
2019-04-14T08:32:13.247Z,11.70
2019-04-14T08:34:41.739Z,10.57
2019-04-14T08:37:10.834Z,10.80
2019-04-14T08:39:39.769Z,11.03
2019-04-14T08:42:17.988Z,10.73
2019-04-14T08:44:48.639Z,10.80
2019-04-14T08:47:39.211Z,10.23
2019-04-14T08:50:12.427Z,10.07
2019-04-14T08:52:55.141Z,10.53
2019-04-14T08:55:41.107Z,10.47
2019-04-14T08:58:18.628Z,8.80
2019-04-14T09:01:06.288Z,11.63
2019-04-14T09:03:47.364Z,10.37
2019-04-14T09:06:20.242Z,9.70
2019-04-14T09:08:54.440Z,10.07
2019-04-14T09:11:29.352Z,9.77
2019-04-14T09:13:57.862Z,10.03
2019-04-14T09:16:26.290Z,10.23
2019-04-14T09:19:06.883Z,10.17
2019-04-14T09:21:24.888Z,10.10
2019-04-14T09:23:53.464Z,10.43
2019-04-14T09:26:22.000Z,9.23
2019-04-14T09:28:50.420Z,11.87
2019-04-14T09:31:18.889Z,11.33
2019-04-14T09:33:47.310Z,9.97
2019-04-14T09:36:15.869Z,10.63
2019-04-14T09:38:44.352Z,10.43
2019-04-14T09:41:12.776Z,10.23
2019-04-14T09:43:41.299Z,10.60
2019-04-14T09:46:09.713Z,10.33
2019-04-14T09:48:38.217Z,10.93
2019-04-14T09:51:06.697Z,10.20
2019-04-14T09:53:35.208Z,9.87
2019-04-14T09:56:03.710Z,10.13
2019-04-14T09:58:32.232Z,9.53
2019-04-14T10:01:01.409Z,10.37
2019-04-14T10:03:29.961Z,9.53
2019-04-14T10:05:58.401Z,9.97
2019-04-14T10:08:27.152Z,9.03
2019-04-14T10:10:55.645Z,9.73
2019-04-14T10:13:24.289Z,9.47
2019-04-14T10:15:52.733Z,9.33
2019-04-14T10:18:21.270Z,11.10
2019-04-14T10:20:49.862Z,10.00
2019-04-14T10:23:18.245Z,9.37
2019-04-14T10:25:46.666Z,10.13
2019-04-14T10:28:15.188Z,9.57
2019-04-14T10:30:43.673Z,10.27
2019-04-14T10:33:12.273Z,9.60
2019-04-14T10:35:40.844Z,9.77
2019-04-14T10:38:09.470Z,10.37
2019-04-14T10:40:37.950Z,9.77
2019-04-14T10:43:06.739Z,10.20
2019-04-14T10:45:35.581Z,10.90
2019-04-14T10:48:04.109Z,10.10
2019-04-14T10:50:32.766Z,10.20
2019-04-14T10:53:01.262Z,10.50
2019-04-14T10:55:29.877Z,10.70
2019-04-14T10:57:58.734Z,10.90
2019-04-14T11:00:27.330Z,11.07
2019-04-14T11:02:55.925Z,11.20
2019-04-14T11:05:26.298Z,11.73
2019-04-14T11:07:54.751Z,11.30
2019-04-14T11:10:23.706Z,11.77
2019-04-14T11:12:53.642Z,11.20
2019-04-14T11:15:22.125Z,11.83
2019-04-14T11:17:51.058Z,12.07
2019-04-14T11:20:19.586Z,11.70
2019-04-14T11:22:48.048Z,11.03
2019-04-14T11:25:16.861Z,11.93
2019-04-14T11:27:45.326Z,11.83
2019-04-14T11:30:17.548Z,11.20
2019-04-14T11:33:04.110Z,11.50
2019-04-14T11:35:40.365Z,11.13
2019-04-14T11:38:15.396Z,10.70
2019-04-14T11:40:49.408Z,11.33
2019-04-14T11:43:17.912Z,11.40
2019-04-14T11:45:46.474Z,11.37
2019-04-14T11:48:14.893Z,10.77
2019-04-14T11:50:43.396Z,11.10
2019-04-14T11:53:11.941Z,11.53
2019-04-14T11:55:40.441Z,10.47
2019-04-14T11:58:08.913Z,11.27
2019-04-14T12:00:57.495Z,11.63
2019-04-14T12:03:37.860Z,10.93
2019-04-14T12:06:24.734Z,10.63
2019-04-14T12:08:59.985Z,10.70
2019-04-14T12:11:28.529Z,9.60
2019-04-14T12:13:56.964Z,10.43
2019-04-14T12:16:25.457Z,10.43
2019-04-14T12:18:53.873Z,9.77
2019-04-14T12:21:22.399Z,10.20
2019-04-14T12:23:50.917Z,10.43
2019-04-14T12:26:19.393Z,9.50
2019-04-14T12:28:47.830Z,10.00
2019-04-14T12:31:17.459Z,9.47
2019-04-14T12:33:46.500Z,9.90
2019-04-14T12:36:15.052Z,10.17
2019-04-14T12:38:43.532Z,10.17
2019-04-14T12:41:17.710Z,10.23
2019-04-14T12:44:09.048Z,9.80
2019-04-14T12:46:56.628Z,10.33
2019-04-14T12:49:32.183Z,10.27
2019-04-14T12:52:34.896Z,10.30
2019-04-14T12:55:03.456Z,11.17
2019-04-14T12:57:46.008Z,10.40
2019-04-14T13:00:21.193Z,10.13
2019-04-14T13:02:51.198Z,10.20
2019-04-14T13:05:19.685Z,10.90
2019-04-14T13:07:48.194Z,10.53
2019-04-14T13:10:16.672Z,10.87
2019-04-14T13:12:45.169Z,11.00
2019-04-14T13:15:13.685Z,10.60
2019-04-14T13:17:42.188Z,10.20
2019-04-14T13:20:11.490Z,10.60
2019-04-14T13:22:39.964Z,10.37
2019-04-14T13:25:08.553Z,10.00
2019-04-14T13:27:37.063Z,10.47
2019-04-14T13:30:05.989Z,10.10
2019-04-14T13:32:36.063Z,10.63
2019-04-14T13:35:05.229Z,10.20
2019-04-14T13:37:33.638Z,10.40
2019-04-14T13:40:02.206Z,9.33
2019-04-14T13:42:30.697Z,10.23
2019-04-14T13:44:59.105Z,11.17
2019-04-14T13:47:27.538Z,10.73
2019-04-14T13:49:56.293Z,10.87
2019-04-14T13:52:24.814Z,10.60
2019-04-14T13:54:53.229Z,10.00
2019-04-14T13:57:21.719Z,10.00
2019-04-14T13:59:50.227Z,10.60
2019-04-14T14:02:18.757Z,10.57
2019-04-14T14:04:47.158Z,10.70
2019-04-14T14:07:15.742Z,11.03
2019-04-14T14:09:44.346Z,10.83
2019-04-14T14:12:30.850Z,10.93
2019-04-14T14:15:34.266Z,11.53
2019-04-14T14:18:28.648Z,10.77
2019-04-14T14:21:19.534Z,10.67
2019-04-14T14:24:01.038Z,10.93
2019-04-14T14:26:30.845Z,10.87
2019-04-14T14:28:59.327Z,10.27
2019-04-14T14:31:28.101Z,10.57
2019-04-14T14:33:56.603Z,10.60
2019-04-14T14:36:25.094Z,10.87
2019-04-14T14:38:53.587Z,10.23
2019-04-14T14:41:22.007Z,11.03
2019-04-14T14:43:50.711Z,9.57
2019-04-14T14:46:29.584Z,10.57
2019-04-14T14:49:15.559Z,10.37
2019-04-14T14:51:50.611Z,10.93
2019-04-14T14:54:19.555Z,10.53
2019-04-14T14:56:48.107Z,11.00
2019-04-14T14:59:16.867Z,10.40
2019-04-14T15:01:45.320Z,9.43
2019-04-14T15:04:13.851Z,9.53
2019-04-14T15:06:42.611Z,9.87
2019-04-14T15:09:11.091Z,9.00
2019-04-14T15:11:39.610Z,9.30
2019-04-14T15:14:08.156Z,9.17
2019-04-14T15:16:36.712Z,9.37
2019-04-14T15:19:05.208Z,9.30
2019-04-14T15:21:33.680Z,9.50
2019-04-14T15:24:02.177Z,9.40
2019-04-14T15:26:30.656Z,9.83
2019-04-14T15:28:59.175Z,9.83
2019-04-14T15:31:27.726Z,9.30
2019-04-14T15:33:56.211Z,9.53
2019-04-14T15:36:24.710Z,9.40
2019-04-14T15:38:53.575Z,9.43
2019-04-14T15:41:21.988Z,9.47
2019-04-14T15:43:50.520Z,9.17
2019-04-14T15:46:19.020Z,9.23
2019-04-14T15:48:47.472Z,9.53
2019-04-14T15:51:15.884Z,9.90
2019-04-14T15:53:44.293Z,9.77
2019-04-14T15:56:19.180Z,9.53
2019-04-14T15:59:02.296Z,9.83
2019-04-14T16:01:47.324Z,9.40
2019-04-14T16:04:26.611Z,9.70
2019-04-14T16:07:23.506Z,9.00
2019-04-14T16:10:16.284Z,9.53
2019-04-14T16:13:08.039Z,9.03
2019-04-14T16:15:49.102Z,9.30
2019-04-14T16:18:39.808Z,9.83
2019-04-14T16:21:08.648Z,9.30
2019-04-14T16:23:49.738Z,9.03
2019-04-14T16:26:41.920Z,9.03
2019-04-14T16:29:23.689Z,8.97
2019-04-14T16:32:11.337Z,8.87
2019-04-14T16:34:52.369Z,8.80
2019-04-14T16:37:20.781Z,9.30
2019-04-14T16:39:49.201Z,9.57
2019-04-14T16:42:17.873Z,8.97
2019-04-14T16:44:46.389Z,9.40
2019-04-14T16:47:14.870Z,9.33
2019-04-14T16:49:43.429Z,9.00
2019-04-14T16:52:29.699Z,9.60
2019-04-14T16:55:03.446Z,9.10
2019-04-14T16:58:09.213Z,9.77
2019-04-14T17:00:41.077Z,9.00
2019-04-14T17:03:09.565Z,8.73
2019-04-14T17:05:39.121Z,8.90
2019-04-14T17:08:07.882Z,9.07
2019-04-14T17:10:36.337Z,9.70
2019-04-14T17:13:04.847Z,8.77
2019-04-14T17:15:58.302Z,8.40
2019-04-14T17:18:38.214Z,8.57
2019-04-14T17:21:24.794Z,8.60
2019-04-14T17:24:02.269Z,8.30
2019-04-14T17:26:49.554Z,8.90
2019-04-14T17:29:44.674Z,7.67
2019-04-14T17:32:31.146Z,7.83
2019-04-14T17:35:17.870Z,7.43
2019-04-14T17:37:53.342Z,6.73
2019-04-14T17:40:49.826Z,7.63
2019-04-14T17:43:21.698Z,6.97
2019-04-14T17:46:05.542Z,6.27
2019-04-14T17:48:54.078Z,6.53
2019-04-14T17:51:27.419Z,6.07
2019-04-14T17:54:04.570Z,6.17
2019-04-14T17:56:39.417Z,6.47
2019-04-14T17:59:27.243Z,6.03
2019-04-14T18:02:19.514Z,6.63
2019-04-14T18:04:59.658Z,6.37
2019-04-14T18:07:47.222Z,7.07
2019-04-14T18:10:33.084Z,6.53
2019-04-14T18:13:24.111Z,6.00
2019-04-14T18:16:14.600Z,5.70
2019-04-14T18:19:14.359Z,6.43
2019-04-14T18:21:44.259Z,5.83
2019-04-14T18:24:12.951Z,5.67
2019-04-14T18:26:41.437Z,5.63
2019-04-14T18:29:44.445Z,6.70
2019-04-14T18:32:30.743Z,6.00
2019-04-14T18:35:14.758Z,5.23
2019-04-14T18:38:05.213Z,5.60
2019-04-14T18:40:52.862Z,6.33
2019-04-14T18:43:32.242Z,5.50
2019-04-14T18:46:09.122Z,6.27
2019-04-14T18:48:50.369Z,5.93
2019-04-14T18:51:30.258Z,5.87
2019-04-14T18:54:09.482Z,6.40
2019-04-14T18:57:03.298Z,5.97
2019-04-14T18:59:36.169Z,5.97
2019-04-14T19:02:04.774Z,5.83
2019-04-14T19:04:33.270Z,5.93
2019-04-14T19:07:01.743Z,6.40
2019-04-14T19:09:30.240Z,5.80
2019-04-14T19:12:20.572Z,6.90
2019-04-14T19:14:51.931Z,6.67
2019-04-14T19:17:27.015Z,6.37
2019-04-14T19:20:01.214Z,7.10
2019-04-14T19:22:25.675Z,7.23
2019-04-14T19:25:06.959Z,6.63
2019-04-14T19:27:24.371Z,6.73
2019-04-14T19:29:53.208Z,7.20
2019-04-14T19:32:21.698Z,7.20
2019-04-14T19:34:53.505Z,7.10
2019-04-14T19:37:22.160Z,6.70
2019-04-14T19:39:50.571Z,6.50
2019-04-14T19:42:18.999Z,6.90
2019-04-14T19:44:47.519Z,6.87
2019-04-14T19:47:15.940Z,7.33
2019-04-14T19:49:44.392Z,6.80
2019-04-14T19:52:12.916Z,7.17
2019-04-14T19:54:41.321Z,7.10
2019-04-14T19:57:09.758Z,7.57
2019-04-14T19:59:38.328Z,7.40
2019-04-14T20:02:06.807Z,7.13
2019-04-14T20:04:35.276Z,8.00
2019-04-14T20:07:03.767Z,7.90
2019-04-14T20:09:32.347Z,7.03
2019-04-14T20:12:00.896Z,7.17
2019-04-14T20:14:29.303Z,7.73
2019-04-14T20:17:06.987Z,7.27
2019-04-14T20:19:42.067Z,6.97
2019-04-14T20:22:18.856Z,7.20
2019-04-14T20:25:08.475Z,7.80
2019-04-14T20:27:44.829Z,7.30
2019-04-14T20:30:19.180Z,7.83
2019-04-14T20:32:48.276Z,7.70
2019-04-14T20:35:16.772Z,7.77
2019-04-14T20:37:45.188Z,9.17
2019-04-14T20:40:13.748Z,9.03
2019-04-14T20:42:42.156Z,9.30
2019-04-14T20:45:12.256Z,8.30
2019-04-14T20:47:40.762Z,9.07
2019-04-14T20:50:09.242Z,8.50
2019-04-14T20:52:37.660Z,9.30
2019-04-14T20:55:06.324Z,9.03
2019-04-14T20:57:35.117Z,9.07
2019-04-14T21:00:04.193Z,9.40
2019-04-14T21:03:04.242Z,9.40
2019-04-14T21:06:01.484Z,9.47
2019-04-14T21:08:58.272Z,9.77
2019-04-14T21:11:38.852Z,9.50
2019-04-14T21:14:27.017Z,9.93
2019-04-14T21:17:17.356Z,9.97
2019-04-14T21:20:07.925Z,10.40
2019-04-14T21:22:40.625Z,10.87
2019-04-14T21:25:31.797Z,10.17
2019-04-14T21:28:09.465Z,11.03
2019-04-14T21:30:43.897Z,10.80
2019-04-14T21:33:43.825Z,11.13
2019-04-14T21:36:34.685Z,10.57
2019-04-14T21:39:34.269Z,11.30
2019-04-14T21:42:02.793Z,11.07
2019-04-14T21:44:31.285Z,11.63
2019-04-14T21:47:00.153Z,11.80
2019-04-14T21:49:28.641Z,12.03
2019-04-14T21:52:15.225Z,12.60
2019-04-14T21:54:44.531Z,12.47
2019-04-14T21:57:47.310Z,12.90
2019-04-14T22:00:34.206Z,12.30
2019-04-14T22:03:20.897Z,13.20
2019-04-14T22:06:14.565Z,13.37
2019-04-14T22:08:50.890Z,13.47
2019-04-14T22:11:21.834Z,13.40
2019-04-14T22:13:51.376Z,14.23
2019-04-14T22:16:20.257Z,13.80
2019-04-14T22:18:48.762Z,12.87
2019-04-14T22:21:17.470Z,13.87
2019-04-14T22:23:46.154Z,14.27
2019-04-14T22:26:25.505Z,13.63
2019-04-14T22:28:45.410Z,13.60
2019-04-14T22:31:13.910Z,13.93
2019-04-14T22:33:42.529Z,14.30
2019-04-14T22:36:11.014Z,13.20
2019-04-14T22:38:39.422Z,14.60
2019-04-14T22:41:07.934Z,14.80
2019-04-14T22:43:36.479Z,14.30
2019-04-14T22:46:05.057Z,14.37
2019-04-14T22:48:33.467Z,14.17
2019-04-14T22:51:01.878Z,15.07
2019-04-14T22:53:30.298Z,15.17
2019-04-14T22:55:58.794Z,14.33
2019-04-14T22:58:27.347Z,15.43
2019-04-14T23:01:02.474Z,15.00
2019-04-14T23:03:56.206Z,14.90
2019-04-14T23:06:38.298Z,15.50
2019-04-14T23:09:18.851Z,15.00
2019-04-14T23:12:09.587Z,15.20
2019-04-14T23:14:52.602Z,16.20
2019-04-14T23:17:35.371Z,16.23
2019-04-14T23:20:33.401Z,16.37
2019-04-14T23:23:12.192Z,16.63
2019-04-14T23:25:40.707Z,15.90
2019-04-14T23:28:09.271Z,17.10
2019-04-14T23:30:37.759Z,16.93
2019-04-14T23:33:06.355Z,16.97
2019-04-14T23:35:34.843Z,16.80
2019-04-14T23:38:03.343Z,17.07
2019-04-14T23:40:31.955Z,16.77
2019-04-14T23:43:00.455Z,16.83
2019-04-14T23:45:29.336Z,16.87
2019-04-14T23:47:57.819Z,17.47
2019-04-14T23:50:26.271Z,17.53
2019-04-14T23:52:54.799Z,17.47
2019-04-14T23:55:23.295Z,17.67
2019-04-14T23:57:51.788Z,18.17
